Time;durP1;ratioP1;P1;durP2;ratioP2;P2;SDS_P1;SDS_P2;PMS_P1;PMS_P2;Temp;Humidity;BMP_temperature;BMP_pressure;BME280_temperature;BME280_humidity;BME280_pressure;Samples;Min_cycle;Max_cycle;Signal;HPM_P1;HPM_P2
2021/09/28 00:02:15;;;;;;;5.25;3.42;;;;;;;15.36;99.01;96678.44;4984169;28;20041;-81
2021/09/28 00:04:41;;;;;;;5.70;3.70;;;;;;;15.39;98.67;96683.38;4968305;28;20063;-81
2021/09/28 00:07:06;;;;;;;6.70;3.22;;;;;;;15.17;100.00;96698.31;4978393;28;20455;-81
2021/09/28 00:09:32;;;;;;;7.30;3.67;;;;;;;15.19;100.00;96699.78;4983192;28;20058;-79
2021/09/28 00:11:59;;;;;;;6.20;3.33;;;;;;;15.09;100.00;96712.44;4972177;28;20113;-80
2021/09/28 00:14:24;;;;;;;7.40;3.67;;;;;;;15.16;100.00;96718.69;4999801;28;20039;-81
2021/09/28 00:16:51;;;;;;;6.65;4.03;;;;;;;15.29;100.00;96715.41;4977828;28;20162;-79
2021/09/28 00:19:16;;;;;;;6.53;4.10;;;;;;;15.21;100.00;96726.91;4983647;28;21001;-80
2021/09/28 00:21:43;;;;;;;7.00;4.13;;;;;;;15.15;100.00;96724.94;4984292;28;20105;-79
2021/09/28 00:24:09;;;;;;;7.43;3.83;;;;;;;15.18;100.00;96721.13;4992138;28;20393;-80
2021/09/28 00:26:35;;;;;;;7.50;4.20;;;;;;;15.12;100.00;96727.13;4980152;28;20038;-81
2021/09/28 00:29:01;;;;;;;7.57;4.03;;;;;;;15.16;100.00;96723.16;4948776;28;20030;-81
2021/09/28 00:31:26;;;;;;;7.03;4.10;;;;;;;15.10;100.00;96724.66;4957193;28;20035;-78
2021/09/28 00:33:52;;;;;;;6.70;3.80;;;;;;;15.15;100.00;96729.44;4974966;28;20117;-81
2021/09/28 00:36:22;;;;;;;7.05;4.30;;;;;;;15.06;100.00;96737.44;4977650;28;20407;-81
2021/09/28 00:38:49;;;;;;;6.88;4.63;;;;;;;15.26;100.00;96732.50;4988365;28;20431;-81
2021/09/28 00:41:15;;;;;;;10.40;6.32;;;;;;;15.07;100.00;96730.31;4999473;28;20449;-81
2021/09/28 00:43:53;;;;;;;6.60;4.32;;;;;;;15.14;100.00;96733.91;4979648;28;20125;-81
2021/09/28 00:46:19;;;;;;;8.32;5.00;;;;;;;15.17;100.00;96740.69;4971899;28;20034;-80
2021/09/28 00:48:45;;;;;;;8.48;5.05;;;;;;;15.23;100.00;96730.22;4955753;28;20037;-81
2021/09/28 00:51:12;;;;;;;7.18;5.15;;;;;;;15.12;100.00;96741.19;4955893;28;20039;-80
2021/09/28 00:53:40;;;;;;;6.53;4.57;;;;;;;15.04;100.00;96731.47;4967243;28;20046;-80
2021/09/28 00:56:19;;;;;;;6.90;4.65;;;;;;;15.03;100.00;96735.13;4959723;28;20125;-78
2021/09/28 00:58:45;;;;;;;9.68;4.55;;;;;;;15.02;100.00;96745.91;4980795;28;20042;-81
2021/09/28 01:01:12;;;;;;;6.78;3.80;;;;;;;15.06;100.00;96748.03;4952778;28;20053;-80
2021/09/28 01:03:38;;;;;;;5.68;3.35;;;;;;;14.99;100.00;96748.88;4978253;28;20026;-78
2021/09/28 01:06:05;;;;;;;3.15;2.00;;;;;;;14.94;100.00;96757.38;4979047;28;20118;-80
2021/09/28 01:08:31;;;;;;;5.13;2.00;;;;;;;14.87;100.00;96759.06;4965931;28;20136;-79
2021/09/28 01:10:57;;;;;;;3.58;1.45;;;;;;;14.89;100.00;96770.31;4968388;28;20035;-81
2021/09/28 01:13:25;;;;;;;1.88;0.80;;;;;;;14.59;100.00;96774.59;4981810;28;20194;-78
2021/09/28 01:16:00;;;;;;;1.60;0.73;;;;;;;14.44;100.00;96781.53;4984591;28;20031;-78
2021/09/28 01:18:27;;;;;;;1.47;0.60;;;;;;;14.43;100.00;96779.88;4992359;28;20045;-81
2021/09/28 01:20:53;;;;;;;0.87;0.63;;;;;;;14.44;100.00;96777.06;4967616;28;20043;-80
2021/09/28 01:23:19;;;;;;;0.73;0.40;;;;;;;14.49;100.00;96779.22;4969307;28;20031;-81
2021/09/28 01:25:45;;;;;;;1.03;0.57;;;;;;;14.38;100.00;96775.94;4974458;28;20133;-81
2021/09/28 01:28:11;;;;;;;1.03;0.50;;;;;;;14.24;100.00;96781.09;5002277;28;20046;-81
2021/09/28 01:30:37;;;;;;;0.40;0.40;;;;;;;14.20;100.00;96777.94;4971097;28;20054;-80
2021/09/28 01:33:03;;;;;;;0.93;0.40;;;;;;;14.19;100.00;96784.25;4978844;28;20460;-80
2021/09/28 01:35:29;;;;;;;1.07;0.30;;;;;;;14.05;100.00;96785.75;4982776;28;20432;-80
2021/09/28 01:37:56;;;;;;;1.97;0.47;;;;;;;13.91;100.00;96803.09;4991052;28;20034;-81
2021/09/28 01:40:22;;;;;;;0.93;0.20;;;;;;;13.80;99.62;96813.19;4956637;28;20113;-81
2021/09/28 01:42:49;;;;;;;0.63;0.30;;;;;;;13.87;98.59;96817.66;4995197;28;20065;-80
2021/09/28 01:45:15;;;;;;;1.03;0.40;;;;;;;13.75;97.77;96834.00;4986120;28;20038;-80
2021/09/28 01:47:41;;;;;;;2.50;0.50;;;;;;;13.87;96.81;96838.78;4961969;28;20033;-81
2021/09/28 01:50:07;;;;;;;1.53;0.50;;;;;;;13.65;96.02;96847.38;4986420;28;20027;-81
2021/09/28 01:52:34;;;;;;;0.70;0.30;;;;;;;13.70;98.08;96847.72;4961079;28;20660;-80
2021/09/28 01:55:00;;;;;;;3.20;0.60;;;;;;;13.73;96.60;96852.69;4966506;28;20030;-81
2021/09/28 01:57:26;;;;;;;2.13;0.40;;;;;;;13.72;97.83;96855.50;4974676;28;20107;-81
2021/09/28 01:59:52;;;;;;;2.10;0.40;;;;;;;13.48;98.07;96858.91;5000744;28;20042;-81
2021/09/28 02:02:18;;;;;;;1.60;0.40;;;;;;;13.32;100.00;96860.53;4984412;28;20030;-80
2021/09/28 02:04:43;;;;;;;1.17;0.40;;;;;;;13.18;100.00;96867.22;4968999;28;20438;-81
2021/09/28 02:07:09;;;;;;;0.93;0.50;;;;;;;13.10;100.00;96869.81;4956402;28;20400;-81
2021/09/28 02:09:35;;;;;;;1.23;0.40;;;;;;;12.89;100.00;96864.94;4950720;28;20032;-80
2021/09/28 02:12:00;;;;;;;1.27;0.33;;;;;;;12.74;100.00;96871.78;4990927;28;20031;-81
2021/09/28 02:14:28;;;;;;;0.97;0.37;;;;;;;12.78;100.00;96872.34;4971652;28;20030;-80
2021/09/28 02:16:57;;;;;;;1.73;0.33;;;;;;;12.54;100.00;96875.63;4974029;28;20728;-80
2021/09/28 02:19:23;;;;;;;2.90;0.53;;;;;;;12.43;100.00;96885.47;4966132;28;20570;-80
2021/09/28 02:21:49;;;;;;;4.63;0.50;;;;;;;12.37;100.00;96883.44;4963493;28;20030;-79
2021/09/28 02:24:17;;;;;;;3.80;0.67;;;;;;;12.16;100.00;96888.25;4967747;28;20030;-80
2021/09/28 02:26:44;;;;;;;4.23;0.87;;;;;;;12.37;100.00;96891.34;4968981;28;20033;-79
2021/09/28 02:29:11;;;;;;;1.20;0.60;;;;;;;12.31;100.00;96886.72;4990674;28;20488;-80
2021/09/28 02:31:37;;;;;;;2.20;0.53;;;;;;;12.27;100.00;96885.34;4960145;28;20114;-79
2021/09/28 02:34:07;;;;;;;0.90;0.43;;;;;;;12.12;100.00;96877.19;5004562;28;20396;-78
2021/09/28 02:36:34;;;;;;;2.60;0.70;;;;;;;12.06;100.00;96876.97;4997558;28;20121;-79
2021/09/28 02:38:59;;;;;;;1.20;0.80;;;;;;;12.05;100.00;96880.59;4985594;28;20456;-80
2021/09/28 02:41:25;;;;;;;1.50;0.40;;;;;;;12.05;100.00;96880.59;5000360;28;20045;-79
2021/09/28 02:43:51;;;;;;;2.83;0.60;;;;;;;12.13;100.00;96876.19;4966068;28;20468;-79
2021/09/28 02:46:17;;;;;;;2.70;0.70;;;;;;;12.15;100.00;96870.78;4966899;28;20093;-79
2021/09/28 02:48:42;;;;;;;1.30;0.40;;;;;;;12.11;100.00;96870.25;4946627;28;20385;-79
2021/09/28 02:51:08;;;;;;;4.43;0.97;;;;;;;11.79;100.00;96879.50;4961489;28;20555;-80
2021/09/28 02:53:34;;;;;;;2.20;0.57;;;;;;;11.86;100.00;96871.03;4986729;28;20034;-79
2021/09/28 02:55:59;;;;;;;2.40;0.80;;;;;;;11.89;100.00;96871.53;4942735;28;20049;-78
2021/09/28 02:58:25;;;;;;;2.33;0.80;;;;;;;11.86;100.00;96871.03;4964658;28;20035;-79
2021/09/28 03:00:51;;;;;;;2.00;0.83;;;;;;;11.89;100.00;96868.91;4978569;28;21042;-80
2021/09/28 03:03:17;;;;;;;2.57;0.97;;;;;;;11.82;100.00;96869.66;4981886;28;20027;-79
2021/09/28 03:05:42;;;;;;;3.07;0.87;;;;;;;11.79;100.00;96878.66;4971399;28;20137;-79
2021/09/28 03:08:08;;;;;;;1.97;0.90;;;;;;;11.71;100.00;96873.34;4981484;28;20023;-80
2021/09/28 03:10:36;;;;;;;2.30;0.80;;;;;;;11.77;100.00;96873.56;5002133;28;20046;-77
2021/09/28 03:13:02;;;;;;;2.93;0.90;;;;;;;11.84;100.00;96876.47;4989035;28;20481;-78
2021/09/28 03:15:28;;;;;;;2.43;0.90;;;;;;;11.85;100.00;96870.19;4980949;28;20045;-80
2021/09/28 03:17:54;;;;;;;1.87;0.90;;;;;;;11.89;100.00;96874.19;4998333;28;20023;-79
2021/09/28 03:20:19;;;;;;;2.00;1.00;;;;;;;11.84;100.00;96873.81;4986474;28;20042;-80
2021/09/28 03:22:45;;;;;;;2.93;1.07;;;;;;;11.85;100.00;96878.09;4965785;28;20113;-80
2021/09/28 03:25:11;;;;;;;1.90;1.33;;;;;;;11.96;100.00;96879.69;4954537;28;20403;-80
2021/09/28 03:27:37;;;;;;;1.23;0.73;;;;;;;12.01;100.00;96865.06;4980579;28;20110;-80
2021/09/28 03:30:05;;;;;;;1.83;0.83;;;;;;;11.91;100.00;96877.50;4992567;28;20034;-78
2021/09/28 03:32:31;;;;;;;1.30;0.70;;;;;;;11.85;100.00;96870.19;4981253;28;20085;-79
2021/09/28 03:34:57;;;;;;;1.47;0.90;;;;;;;11.95;100.00;96878.03;4981322;28;20038;-79
2021/09/28 03:37:23;;;;;;;2.40;0.90;;;;;;;11.87;100.00;96884.06;4977933;28;20042;-79
2021/09/28 03:39:48;;;;;;;1.53;0.80;;;;;;;11.96;100.00;96882.31;4973619;28;20041;-80
2021/09/28 03:42:14;;;;;;;2.00;1.17;;;;;;;11.86;100.00;96887.66;4976517;28;20488;-79
2021/09/28 03:44:40;;;;;;;2.60;1.00;;;;;;;11.87;100.00;96891.97;4981555;28;20033;-80
2021/09/28 03:47:05;;;;;;;3.67;1.40;;;;;;;11.87;100.00;96888.47;4991189;28;20113;-79
2021/09/28 03:49:31;;;;;;;2.40;1.70;;;;;;;11.84;100.00;96891.38;4994880;28;20066;-78
2021/09/28 03:51:57;;;;;;;2.63;1.70;;;;;;;11.86;100.00;96897.38;4967807;28;20030;-79
2021/09/28 03:54:22;;;;;;;2.97;1.47;;;;;;;12.01;100.00;96891.44;4970204;28;20051;-78
2021/09/28 03:56:48;;;;;;;2.77;1.40;;;;;;;12.06;100.00;96895.41;5002282;28;20034;-79
2021/09/28 03:59:14;;;;;;;2.93;1.23;;;;;;;11.98;100.00;96891.72;4981756;28;20101;-79
2021/09/28 04:01:39;;;;;;;3.43;1.80;;;;;;;11.92;100.00;96899.41;4963223;28;20058;-80
2021/09/28 04:04:05;;;;;;;3.33;2.43;;;;;;;11.74;100.00;96900.22;4975266;28;20035;-76
2021/09/28 04:06:35;;;;;;;4.63;2.80;;;;;;;11.80;100.00;96896.13;5010859;28;20071;-78
2021/09/28 04:09:00;;;;;;;5.77;2.93;;;;;;;11.93;100.00;96899.25;5012158;28;20026;-80
2021/09/28 04:11:26;;;;;;;5.47;3.47;;;;;;;11.83;100.00;96895.84;4979738;28;20050;-79
2021/09/28 04:13:52;;;;;;;5.10;3.60;;;;;;;11.77;100.00;96892.00;4980330;28;20034;-78
2021/09/28 04:16:19;;;;;;;6.87;4.10;;;;;;;11.86;100.00;96903.47;4965682;28;20054;-80
2021/09/28 04:18:46;;;;;;;8.10;3.73;;;;;;;11.88;100.00;96901.53;4978112;28;20061;-78
2021/09/28 04:21:12;;;;;;;5.00;3.40;;;;;;;11.93;100.00;96904.53;4994794;28;20086;-80
2021/09/28 04:23:38;;;;;;;8.67;4.13;;;;;;;11.86;100.00;96907.91;4979832;28;20024;-80
2021/09/28 04:26:03;;;;;;;5.90;3.50;;;;;;;11.94;100.00;96905.38;4975427;28;20025;-78
2021/09/28 04:28:30;;;;;;;6.73;3.97;;;;;;;11.84;100.00;96907.19;5001962;28;20042;-80
2021/09/28 04:30:55;;;;;;;7.00;4.47;;;;;;;11.82;100.00;96906.53;4973257;28;20029;-79
2021/09/28 04:33:21;;;;;;;7.40;4.60;;;;;;;11.82;100.00;96904.72;4964181;28;20035;-80
2021/09/28 04:35:47;;;;;;;6.90;5.03;;;;;;;11.72;100.00;96914.50;4971985;28;20023;-80
2021/09/28 04:38:12;;;;;;;10.57;4.83;;;;;;;11.77;100.00;96912.28;4975915;28;20035;-79
2021/09/28 04:40:38;;;;;;;8.67;5.00;;;;;;;11.85;100.00;96915.00;4969825;28;20158;-78
2021/09/28 04:43:04;;;;;;;14.87;10.67;;;;;;;11.82;100.00;96911.81;4972605;28;20432;-80
2021/09/28 04:45:30;;;;;;;7.57;5.77;;;;;;;11.76;100.00;96913.22;4965909;28;20023;-80
2021/09/28 04:47:55;;;;;;;8.60;5.77;;;;;;;11.79;100.00;96918.19;4980889;28;20528;-78
2021/09/28 04:50:21;;;;;;;8.53;6.03;;;;;;;11.76;100.00;96919.31;4980841;28;20031;-77
2021/09/28 04:52:47;;;;;;;9.13;6.30;;;;;;;11.73;100.00;96914.34;4978411;28;20038;-79
2021/09/28 04:55:13;;;;;;;10.00;7.30;;;;;;;11.74;100.00;96916.03;4965214;28;20634;-80
2021/09/28 04:57:39;;;;;;;12.43;7.40;;;;;;;11.71;100.00;96913.69;4966576;28;20101;-78
2021/09/28 05:00:06;;;;;;;10.70;8.03;;;;;;;11.74;100.00;96917.84;4969566;28;20476;-78
2021/09/28 05:02:31;;;;;;;11.77;8.33;;;;;;;11.71;100.00;96915.50;4956813;28;20034;-79
2021/09/28 05:04:57;;;;;;;12.30;9.30;;;;;;;11.73;100.00;96918.78;4994683;28;20027;-79
2021/09/28 05:07:23;;;;;;;13.30;9.90;;;;;;;11.57;100.00;96925.56;4991254;28;20030;-78
2021/09/28 05:09:48;;;;;;;12.70;8.67;;;;;;;11.56;100.00;96931.78;4978777;28;20058;-79
2021/09/28 05:12:14;;;;;;;12.53;9.33;;;;;;;11.59;100.00;96921.94;4953041;28;20042;-77
2021/09/28 05:14:40;;;;;;;10.63;9.03;;;;;;;11.53;100.00;96928.63;4989416;28;20026;-77
2021/09/28 05:17:06;;;;;;;13.70;9.30;;;;;;;11.59;100.00;96930.69;4981519;28;20045;-76
2021/09/28 05:19:31;;;;;;;15.07;8.60;;;;;;;11.56;100.00;96931.78;4979698;28;20073;-77
2021/09/28 05:21:57;;;;;;;14.90;8.40;;;;;;;11.64;100.00;96931.06;4968130;28;20026;-77
2021/09/28 05:24:23;;;;;;;12.87;8.53;;;;;;;11.50;100.00;96935.03;4975158;28;20130;-76
2021/09/28 05:26:49;;;;;;;12.23;9.63;;;;;;;11.60;100.00;96931.50;4985646;28;20126;-77
2021/09/28 05:29:15;;;;;;;13.63;10.30;;;;;;;11.60;100.00;96940.22;4993768;28;20041;-76
2021/09/28 05:31:41;;;;;;;13.63;9.20;;;;;;;11.65;100.00;96935.34;4983106;28;20047;-77
2021/09/28 05:34:06;;;;;;;12.63;9.97;;;;;;;11.55;100.00;96939.84;4977085;28;20085;-76
2021/09/28 05:36:32;;;;;;;19.63;12.93;;;;;;;11.51;100.00;96933.25;4980211;28;20550;-76
2021/09/28 05:38:58;;;;;;;16.57;12.70;;;;;;;11.65;100.00;96945.06;4972456;28;20026;-76
2021/09/28 05:41:25;;;;;;;13.27;9.47;;;;;;;11.70;100.00;96945.44;5002562;28;20658;-76
2021/09/28 05:43:52;;;;;;;13.53;9.23;;;;;;;11.81;100.00;96939.97;4980627;28;20018;-77
2021/09/28 05:46:18;;;;;;;11.10;8.93;;;;;;;11.81;100.00;96947.88;4983981;28;20118;-77
2021/09/28 05:48:43;;;;;;;15.70;9.97;;;;;;;11.85;100.00;96954.53;4986835;28;20058;-77
2021/09/28 05:51:17;;;;;;;13.33;9.87;;;;;;;11.78;100.00;96953.44;4982037;28;20448;-76
2021/09/28 05:53:45;;;;;;;12.77;9.47;;;;;;;11.77;100.00;96950.00;4982007;28;20088;-77
2021/09/28 05:56:15;;;;;;;14.57;10.07;;;;;;;11.74;100.00;96958.19;4971663;28;20054;-76
2021/09/28 05:58:41;;;;;;;13.67;9.37;;;;;;;11.80;100.00;96962.00;4981056;28;20038;-76
2021/09/28 06:01:07;;;;;;;14.17;8.90;;;;;;;11.80;100.00;96960.22;5002223;28;20472;-76
2021/09/28 06:03:32;;;;;;;13.93;9.50;;;;;;;11.94;100.00;96953.66;4990956;28;20037;-76
2021/09/28 06:05:59;;;;;;;12.03;10.23;;;;;;;11.85;100.00;96959.81;4996257;28;20046;-76
2021/09/28 06:08:25;;;;;;;12.43;9.57;;;;;;;11.88;100.00;96964.78;4991528;28;20027;-76
2021/09/28 06:10:51;;;;;;;17.13;10.53;;;;;;;11.85;100.00;96964.25;5010545;28;20019;-76
2021/09/28 06:13:16;;;;;;;16.23;11.13;;;;;;;11.92;100.00;96966.13;4979952;28;20188;-76
2021/09/28 06:15:42;;;;;;;12.47;9.47;;;;;;;11.82;100.00;96975.88;4985814;28;20472;-77
2021/09/28 06:18:08;;;;;;;15.80;8.83;;;;;;;11.83;100.00;96974.06;4987260;28;20503;-76
2021/09/28 06:20:33;;;;;;;13.07;8.77;;;;;;;11.94;100.00;96976.53;4981150;28;20022;-76
2021/09/28 06:22:59;;;;;;;11.13;8.70;;;;;;;11.95;100.00;96979.00;4982376;28;20092;-76
2021/09/28 06:25:25;;;;;;;13.90;8.80;;;;;;;11.99;100.00;96982.19;4985387;28;20026;-77
2021/09/28 06:27:50;;;;;;;12.73;8.73;;;;;;;11.87;100.00;96978.09;5008883;28;20061;-76
2021/09/28 06:30:16;;;;;;;9.93;7.30;;;;;;;11.98;100.00;96976.09;4975618;28;20030;-76
2021/09/28 06:32:42;;;;;;;12.33;8.70;;;;;;;11.97;100.00;96984.13;4999396;28;20502;-76
2021/09/28 06:35:08;;;;;;;14.23;8.37;;;;;;;11.96;100.00;96983.31;4986637;28;20384;-77
2021/09/28 06:37:34;;;;;;;12.63;7.73;;;;;;;12.01;100.00;96975.78;4996029;28;20039;-77
2021/09/28 06:39:59;;;;;;;11.70;8.43;;;;;;;12.00;100.00;96978.56;4968064;28;20046;-77
2021/09/28 06:42:25;;;;;;;13.00;7.73;;;;;;;11.90;100.00;96983.88;4996431;28;20038;-77
2021/09/28 06:44:51;;;;;;;11.70;7.67;;;;;;;11.76;100.00;96981.75;4971428;28;20106;-77
2021/09/28 06:47:17;;;;;;;13.27;8.50;;;;;;;12.07;100.00;96981.41;4972798;28;20775;-76
2021/09/28 06:49:45;;;;;;;14.37;7.83;;;;;;;12.17;100.00;96979.53;4982428;28;20062;-76
2021/09/28 06:52:11;;;;;;;10.80;8.10;;;;;;;12.26;100.00;96976.00;4986894;28;20190;-77
2021/09/28 06:54:37;;;;;;;13.27;7.83;;;;;;;12.10;100.00;96970.56;4969217;28;20114;-77
2021/09/28 06:57:03;;;;;;;12.23;8.67;;;;;;;12.29;100.00;96966.97;4978158;28;20031;-76
2021/09/28 06:59:29;;;;;;;14.17;7.37;;;;;;;12.31;100.00;96965.00;4988146;28;20148;-76
2021/09/28 07:01:55;;;;;;;13.40;8.37;;;;;;;12.52;100.00;96968.16;4973756;28;20472;-76
2021/09/28 07:04:21;;;;;;;15.30;10.40;;;;;;;12.59;100.00;96966.53;4980394;28;20037;-76
2021/09/28 07:06:47;;;;;;;17.80;14.33;;;;;;;12.56;100.00;96969.50;4976429;28;20080;-77
2021/09/28 07:09:12;;;;;;;11.27;7.60;;;;;;;12.75;100.00;96965.84;4996740;28;20031;-76
2021/09/28 07:11:39;;;;;;;10.20;8.17;;;;;;;13.04;100.00;96962.03;4981163;28;20493;-76
2021/09/28 07:14:05;;;;;;;12.47;8.03;;;;;;;13.62;100.00;96951.59;4971501;28;20023;-76
2021/09/28 07:16:30;;;;;;;12.63;8.60;;;;;;;13.69;100.00;96954.44;4975814;28;20061;-76
2021/09/28 07:18:56;;;;;;;12.33;8.03;;;;;;;13.25;100.00;96949.31;4985496;28;20026;-76
2021/09/28 07:21:22;;;;;;;13.97;8.57;;;;;;;13.70;98.74;96950.78;4988620;28;20101;-76
2021/09/28 07:23:47;;;;;;;13.90;9.00;;;;;;;13.80;94.63;96935.63;4990555;28;20027;-76
2021/09/28 07:26:13;;;;;;;11.67;8.30;;;;;;;14.08;94.63;96949.41;4959393;28;20042;-77
2021/09/28 07:28:39;;;;;;;13.20;8.97;;;;;;;14.91;87.96;96936.97;4989344;28;20436;-77
2021/09/28 07:31:06;;;;;;;15.63;8.03;;;;;;;14.56;88.46;96939.03;4975281;28;20109;-76
2021/09/28 07:33:32;;;;;;;13.50;8.07;;;;;;;14.76;89.62;96942.97;4997979;28;20023;-76
2021/09/28 07:35:58;;;;;;;12.55;7.45;;;;;;;14.85;88.40;96944.63;5001369;28;20038;-77
2021/09/28 07:38:23;;;;;;;15.02;9.23;;;;;;;14.39;89.98;96956.69;4997084;28;20523;-77
2021/09/28 07:40:50;;;;;;;11.77;8.50;;;;;;;14.16;91.56;96956.50;4975662;28;20033;-77
2021/09/28 07:43:18;;;;;;;12.88;8.18;;;;;;;13.74;93.97;96965.34;4970818;28;20072;-77
2021/09/28 07:45:44;;;;;;;12.77;8.27;;;;;;;13.75;94.69;96971.44;4981335;28;20033;-77
2021/09/28 07:48:10;;;;;;;11.93;7.75;;;;;;;13.68;96.03;96965.97;4978972;28;20113;-76
2021/09/28 07:50:37;;;;;;;16.27;9.30;;;;;;;13.78;95.46;96969.34;4979118;28;20037;-77
2021/09/28 07:53:06;;;;;;;17.77;8.20;;;;;;;14.15;93.21;96965.41;4976540;28;20102;-76
2021/09/28 07:55:32;;;;;;;17.50;11.57;;;;;;;14.15;94.08;96973.34;4988074;28;20596;-77
2021/09/28 07:57:58;;;;;;;12.20;8.60;;;;;;;14.14;91.69;96966.41;5002589;28;20026;-77
2021/09/28 08:00:24;;;;;;;9.90;8.05;;;;;;;14.81;89.54;96969.75;4973030;28;20422;-77
2021/09/28 08:02:49;;;;;;;12.98;8.10;;;;;;;15.11;86.84;96966.56;4982951;28;20101;-77
2021/09/28 08:05:15;;;;;;;12.75;7.85;;;;;;;15.53;85.21;96963.59;5000002;28;20030;-77
2021/09/28 08:07:41;;;;;;;10.85;7.82;;;;;;;15.98;83.39;96967.38;4983249;28;20407;-76
2021/09/28 08:10:09;;;;;;;10.95;7.00;;;;;;;16.23;79.51;96963.56;4977395;28;20050;-76
2021/09/28 08:12:35;;;;;;;10.68;7.45;;;;;;;16.80;75.70;96967.63;4983828;28;20807;-77
2021/09/28 08:15:01;;;;;;;11.88;8.23;;;;;;;16.78;74.92;96963.50;5001034;28;20097;-77
2021/09/28 08:17:27;;;;;;;10.98;6.82;;;;;;;17.62;72.80;96967.56;4969413;28;20035;-77
2021/09/28 08:19:54;;;;;;;10.57;5.78;;;;;;;17.32;74.18;96963.25;4990250;28;20034;-77
2021/09/28 08:22:20;;;;;;;11.43;6.18;;;;;;;17.23;73.91;96961.69;4990737;28;20026;-77
2021/09/28 08:24:50;;;;;;;11.32;5.32;;;;;;;17.47;71.65;96958.78;4973958;28;20062;-77
2021/09/28 08:30:06;;;;;;;7.38;4.70;;;;;;;16.00;77.32;96962.72;4996381;28;20392;-77
2021/09/28 08:32:33;;;;;;;9.90;5.78;;;;;;;15.79;76.33;96965.97;4984039;28;20034;-77
2021/09/28 08:34:58;;;;;;;11.02;6.05;;;;;;;15.35;80.13;96968.31;4989971;28;20019;-77
2021/09/28 08:37:26;;;;;;;10.70;5.53;;;;;;;15.07;81.63;96974.84;4992338;28;20038;-77
2021/09/28 08:39:56;;;;;;;8.18;5.50;;;;;;;15.32;82.67;96975.63;5003305;28;20026;-77
2021/09/28 08:42:22;;;;;;;9.35;5.78;;;;;;;15.35;80.73;96966.47;4988221;28;20052;-78
2021/09/28 08:44:49;;;;;;;9.35;5.75;;;;;;;15.32;79.86;96966.81;4955944;28;20026;-77
2021/09/28 08:47:14;;;;;;;8.70;5.85;;;;;;;15.01;79.66;96974.69;4965066;28;20043;-77
2021/09/28 08:49:40;;;;;;;12.27;6.75;;;;;;;15.25;79.87;96971.97;4987592;28;20027;-77
2021/09/28 08:52:07;;;;;;;15.77;6.63;;;;;;;15.41;78.40;96967.63;4988275;28;20089;-76
2021/09/28 08:54:33;;;;;;;20.98;15.10;;;;;;;16.07;75.45;96955.72;4978999;28;20034;-77
2021/09/28 08:56:59;;;;;;;10.60;6.45;;;;;;;16.57;72.23;96951.69;4998394;28;20062;-77
2021/09/28 08:59:49;;;;;;;12.45;5.93;;;;;;;16.34;70.01;96966.81;4965734;28;20027;-77
2021/09/28 09:02:15;;;;;;;12.07;5.53;;;;;;;15.91;72.31;96961.13;4986162;28;20125;-76
2021/09/28 09:04:42;;;;;;;12.80;8.75;;;;;;;16.30;73.70;96960.19;4987707;28;20030;-77
2021/09/28 09:07:25;;;;;;;14.77;6.32;;;;;;;15.88;74.75;96961.47;4971601;28;20054;-78
2021/09/28 09:09:51;;;;;;;;;;;;;;;15.75;72.94;96962.84;4998681;28;20036;-76
2021/09/28 09:12:39;;;;;;;10.98;5.97;;;;;;;15.81;73.32;96961.34;4968086;28;20370;-77
2021/09/28 09:15:24;;;;;;;11.93;5.75;;;;;;;16.59;71.23;96951.50;4987469;28;20116;-77
2021/09/28 09:17:53;;;;;;;7.53;4.55;;;;;;;16.63;70.97;96953.63;4975587;28;20058;-76
2021/09/28 09:20:38;;;;;;;11.52;4.95;;;;;;;16.68;70.09;96951.25;4965013;28;20038;-77
2021/09/28 09:23:22;;;;;;;12.20;5.22;;;;;;;16.73;67.99;96950.69;4951530;28;20034;-77
2021/09/28 09:26:03;;;;;;;7.53;4.40;;;;;;;17.64;66.72;96940.78;4975418;28;20073;-77
2021/09/28 09:28:31;;;;;;;10.25;4.60;;;;;;;18.59;60.62;96943.22;4975781;28;20022;-78
2021/09/28 09:31:22;;;;;;;7.13;4.07;;;;;;;20.27;54.51;96929.72;4973111;28;20025;-77
2021/09/28 09:33:50;;;;;;;10.77;6.88;;;;;;;20.68;55.27;96938.41;4965951;28;20062;-77
2021/09/28 09:36:18;;;;;;;7.85;4.32;;;;;;;21.07;52.26;96934.06;4974113;28;20030;-77
2021/09/28 09:38:56;;;;;;;9.70;5.43;;;;;;;21.02;53.97;96930.38;4977530;28;20034;-77
2021/09/28 09:41:27;;;;;;;6.05;3.28;;;;;;;22.03;50.71;96932.50;4966060;28;20062;-77
2021/09/28 09:44:11;;;;;;;7.57;3.70;;;;;;;21.60;51.60;96938.50;4982007;28;20027;-77
2021/09/28 09:46:42;;;;;;;10.93;4.30;;;;;;;19.46;55.84;96941.97;4995624;28;20054;-77
2021/09/28 09:49:10;;;;;;;6.68;3.28;;;;;;;19.58;57.38;96933.38;4986706;28;20035;-78
2021/09/28 09:51:42;;;;;;;8.13;3.60;;;;;;;19.42;57.25;96943.38;4962218;28;20031;-77
2021/09/28 09:54:07;;;;;;;8.77;4.05;;;;;;;18.75;59.69;96941.31;4987954;28;20043;-78
2021/09/28 09:56:51;;;;;;;6.20;4.25;;;;;;;17.83;61.58;96947.34;4971224;28;20023;-78
2021/09/28 09:59:22;;;;;;;9.27;4.43;;;;;;;16.74;62.48;96944.41;4987149;28;20034;-78
2021/09/28 10:01:48;;;;;;;8.93;4.32;;;;;;;17.30;61.52;96933.38;5006448;28;20041;-78
2021/09/28 10:04:16;;;;;;;7.25;3.58;;;;;;;17.19;64.16;96943.47;4981567;28;20059;-77
2021/09/28 10:06:42;;;;;;;13.02;8.45;;;;;;;17.73;62.01;96933.50;4979359;28;20133;-77
2021/09/28 10:09:30;;;;;;;16.58;12.20;;;;;;;17.10;63.23;96936.59;4979551;28;20126;-77
2021/09/28 10:11:58;;;;;;;6.50;3.30;;;;;;;18.38;59.39;96925.41;4995250;28;20030;-77
2021/09/28 10:14:44;;;;;;;8.00;3.92;;;;;;;19.39;54.81;96917.09;4962254;28;20037;-78
2021/09/28 10:17:12;;;;;;;8.82;4.38;;;;;;;19.33;57.02;96923.22;4983437;28;20069;-77
2021/09/28 10:19:43;;;;;;;6.32;3.85;;;;;;;20.30;54.56;96907.97;4963850;28;20035;-77
2021/09/28 10:22:39;;;;;;;7.95;4.28;;;;;;;20.44;54.39;96913.09;4977034;28;20072;-77
2021/09/28 10:25:23;;;;;;;9.32;4.13;;;;;;;20.05;53.59;96913.84;4971735;28;20061;-77
2021/09/28 10:27:54;;;;;;;8.38;4.05;;;;;;;19.02;51.75;96918.34;4960561;28;20049;-77
2021/09/28 10:30:32;;;;;;;8.55;3.88;;;;;;;19.01;54.36;96912.19;4994738;28;20093;-78
2021/09/28 10:33:23;;;;;;;7.20;3.63;;;;;;;20.01;53.97;96910.78;5002809;28;20411;-76
2021/09/28 10:36:01;;;;;;;8.93;3.85;;;;;;;19.66;54.16;96903.91;4981338;28;20061;-77
2021/09/28 10:38:42;;;;;;;7.05;2.97;;;;;;;21.51;47.52;96889.72;4971109;28;20031;-76
2021/09/28 10:41:28;;;;;;;6.15;2.50;;;;;;;20.92;51.10;96896.03;4985994;28;20034;-76
2021/09/28 10:44:40;;;;;;;5.22;2.58;;;;;;;21.30;46.81;96887.31;4957946;28;20484;-76
2021/09/28 10:47:06;;;;;;;5.53;2.47;;;;;;;20.28;46.38;96894.78;4971342;28;20045;-77
2021/09/28 10:49:34;;;;;;;7.85;2.78;;;;;;;21.11;50.60;96887.16;4978887;28;20055;-76
2021/09/28 10:52:22;;;;;;;5.55;2.55;;;;;;;22.25;45.46;96876.78;4985161;28;20085;-77
2021/09/28 10:55:06;;;;;;;6.22;2.22;;;;;;;22.29;45.98;96876.13;4953453;28;20039;-78
2021/09/28 10:58:01;;;;;;;4.22;2.00;;;;;;;22.52;42.51;96877.41;4977660;28;20134;-77
2021/09/28 11:00:29;;;;;;;7.43;2.25;;;;;;;23.05;41.74;96868.88;4966511;28;20453;-78
2021/09/28 11:02:56;;;;;;;5.03;2.63;;;;;;;22.55;43.40;96869.72;4974679;28;20030;-77
2021/09/28 11:05:30;;;;;;;6.28;2.75;;;;;;;22.20;44.95;96869.41;4982561;28;20034;-78
2021/09/28 11:08:01;;;;;;;7.03;2.65;;;;;;;21.02;48.02;96874.22;4981201;28;20037;-77
2021/09/28 11:10:28;;;;;;;7.53;2.70;;;;;;;20.47;49.52;96867.28;4964603;28;20039;-78
2021/09/28 11:12:54;;;;;;;5.10;2.60;;;;;;;20.06;48.27;96858.63;4984212;28;20049;-78
2021/09/28 11:15:21;;;;;;;4.80;2.50;;;;;;;20.41;49.59;96854.72;5000494;28;20100;-79
2021/09/28 11:17:47;;;;;;;6.72;2.70;;;;;;;20.92;46.38;96848.75;4955769;28;20467;-77
2021/09/28 11:20:28;;;;;;;4.18;1.95;;;;;;;22.10;44.86;96844.94;4988441;28;20054;-77
2021/09/28 11:23:00;;;;;;;5.32;2.28;;;;;;;22.08;44.63;96845.13;4986827;28;20038;-76
2021/09/28 11:25:27;;;;;;;6.85;3.30;;;;;;;19.39;48.27;96853.09;4976942;28;20038;-76
2021/09/28 11:28:04;;;;;;;5.57;2.17;;;;;;;20.30;48.60;96844.66;4982359;28;20358;-78
2021/09/28 11:30:34;;;;;;;6.43;2.58;;;;;;;20.45;47.53;96831.09;4973715;28;20482;-77
2021/09/28 11:33:10;;;;;;;6.53;3.00;;;;;;;21.89;45.03;96828.16;4985608;28;20026;-77